sensor_id;sensor_type;location;lat;lon;timestamp;P1;durP1;ratioP1;P2;durP2;ratioP2
29362;SDS011;16349;53.672;10.014;2023-06-24T00:02:14;9.40;;;8.30;;
29362;SDS011;16349;53.672;10.014;2023-06-24T00:04:41;12.50;;;8.90;;
29362;SDS011;16349;53.672;10.014;2023-06-24T00:07:08;12.33;;;9.63;;
29362;SDS011;16349;53.672;10.014;2023-06-24T00:09:34;10.70;;;9.03;;
29362;SDS011;16349;53.672;10.014;2023-06-24T00:12:04;10.70;;;8.23;;
29362;SDS011;16349;53.672;10.014;2023-06-24T00:14:32;13.97;;;8.43;;
29362;SDS011;16349;53.672;10.014;2023-06-24T00:16:59;11.97;;;9.07;;
29362;SDS011;16349;53.672;10.014;2023-06-24T00:19:26;9.47;;;8.47;;
29362;SDS011;16349;53.672;10.014;2023-06-24T00:21:53;9.87;;;8.87;;
29362;SDS011;16349;53.672;10.014;2023-06-24T00:24:20;10.83;;;9.53;;
29362;SDS011;16349;53.672;10.014;2023-06-24T00:26:50;11.13;;;8.97;;
29362;SDS011;16349;53.672;10.014;2023-06-24T00:29:19;9.90;;;8.47;;
29362;SDS011;16349;53.672;10.014;2023-06-24T00:31:46;12.77;;;10.57;;
29362;SDS011;16349;53.672;10.014;2023-06-24T00:34:13;12.40;;;9.83;;
29362;SDS011;16349;53.672;10.014;2023-06-24T00:36:41;11.63;;;10.40;;
29362;SDS011;16349;53.672;10.014;2023-06-24T00:39:09;14.10;;;10.70;;
29362;SDS011;16349;53.672;10.014;2023-06-24T00:41:36;12.97;;;11.67;;
29362;SDS011;16349;53.672;10.014;2023-06-24T00:44:02;12.13;;;9.93;;
29362;SDS011;16349;53.672;10.014;2023-06-24T00:46:31;12.43;;;9.93;;
29362;SDS011;16349;53.672;10.014;2023-06-24T00:48:59;11.60;;;10.40;;
29362;SDS011;16349;53.672;10.014;2023-06-24T00:51:28;12.03;;;10.10;;
29362;SDS011;16349;53.672;10.014;2023-06-24T00:53:56;11.90;;;9.80;;
29362;SDS011;16349;53.672;10.014;2023-06-24T00:56:25;13.33;;;10.60;;
29362;SDS011;16349;53.672;10.014;2023-06-24T00:58:56;11.57;;;9.80;;
29362;SDS011;16349;53.672;10.014;2023-06-24T01:01:25;11.97;;;10.57;;
29362;SDS011;16349;53.672;10.014;2023-06-24T01:03:54;12.40;;;10.83;;
29362;SDS011;16349;53.672;10.014;2023-06-24T01:06:22;11.80;;;10.60;;
29362;SDS011;16349;53.672;10.014;2023-06-24T01:08:49;13.43;;;11.10;;
29362;SDS011;16349;53.672;10.014;2023-06-24T01:11:16;14.77;;;11.50;;
29362;SDS011;16349;53.672;10.014;2023-06-24T01:13:43;12.23;;;11.00;;
29362;SDS011;16349;53.672;10.014;2023-06-24T01:16:10;12.30;;;10.70;;
29362;SDS011;16349;53.672;10.014;2023-06-24T01:18:45;12.80;;;10.53;;
29362;SDS011;16349;53.672;10.014;2023-06-24T01:21:18;17.80;;;11.00;;
29362;SDS011;16349;53.672;10.014;2023-06-24T01:24:08;13.80;;;10.80;;
29362;SDS011;16349;53.672;10.014;2023-06-24T01:27:16;15.87;;;11.40;;
29362;SDS011;16349;53.672;10.014;2023-06-24T01:30:03;11.40;;;10.20;;
29362;SDS011;16349;53.672;10.014;2023-06-24T01:32:55;15.93;;;10.40;;
29362;SDS011;16349;53.672;10.014;2023-06-24T01:35:28;13.33;;;10.07;;
29362;SDS011;16349;53.672;10.014;2023-06-24T01:37:59;11.57;;;10.37;;
29362;SDS011;16349;53.672;10.014;2023-06-24T01:40:28;12.53;;;10.73;;
29362;SDS011;16349;53.672;10.014;2023-06-24T01:42:58;15.37;;;11.33;;
29362;SDS011;16349;53.672;10.014;2023-06-24T01:45:27;11.37;;;10.20;;
29362;SDS011;16349;53.672;10.014;2023-06-24T01:47:59;13.57;;;10.03;;
29362;SDS011;16349;53.672;10.014;2023-06-24T01:50:27;11.60;;;9.43;;
29362;SDS011;16349;53.672;10.014;2023-06-24T01:52:58;11.67;;;10.30;;
29362;SDS011;16349;53.672;10.014;2023-06-24T01:55:29;12.57;;;9.33;;
29362;SDS011;16349;53.672;10.014;2023-06-24T01:57:57;10.03;;;9.10;;
29362;SDS011;16349;53.672;10.014;2023-06-24T02:00:28;12.40;;;9.67;;
29362;SDS011;16349;53.672;10.014;2023-06-24T02:02:55;11.20;;;9.23;;
29362;SDS011;16349;53.672;10.014;2023-06-24T02:05:24;12.97;;;10.10;;
29362;SDS011;16349;53.672;10.014;2023-06-24T02:07:52;11.13;;;10.00;;
29362;SDS011;16349;53.672;10.014;2023-06-24T02:10:20;13.53;;;10.07;;
29362;SDS011;16349;53.672;10.014;2023-06-24T02:12:49;11.30;;;10.03;;
29362;SDS011;16349;53.672;10.014;2023-06-24T02:15:17;10.83;;;9.73;;
29362;SDS011;16349;53.672;10.014;2023-06-24T02:17:48;11.73;;;9.53;;
29362;SDS011;16349;53.672;10.014;2023-06-24T02:20:16;11.40;;;10.20;;
29362;SDS011;16349;53.672;10.014;2023-06-24T02:22:47;13.33;;;10.00;;
29362;SDS011;16349;53.672;10.014;2023-06-24T02:25:15;11.27;;;9.77;;
29362;SDS011;16349;53.672;10.014;2023-06-24T02:27:42;12.53;;;10.53;;
29362;SDS011;16349;53.672;10.014;2023-06-24T02:30:12;9.83;;;8.87;;
29362;SDS011;16349;53.672;10.014;2023-06-24T02:32:40;9.70;;;8.80;;
29362;SDS011;16349;53.672;10.014;2023-06-24T02:35:07;10.63;;;9.53;;
29362;SDS011;16349;53.672;10.014;2023-06-24T02:37:35;11.87;;;9.83;;
29362;SDS011;16349;53.672;10.014;2023-06-24T02:40:04;11.50;;;9.57;;
29362;SDS011;16349;53.672;10.014;2023-06-24T02:42:32;11.07;;;9.70;;
29362;SDS011;16349;53.672;10.014;2023-06-24T02:44:58;12.60;;;9.43;;
29362;SDS011;16349;53.672;10.014;2023-06-24T02:47:26;10.27;;;9.17;;
29362;SDS011;16349;53.672;10.014;2023-06-24T02:49:54;12.17;;;10.00;;
29362;SDS011;16349;53.672;10.014;2023-06-24T02:52:23;10.00;;;9.00;;
29362;SDS011;16349;53.672;10.014;2023-06-24T02:54:53;10.10;;;8.73;;
29362;SDS011;16349;53.672;10.014;2023-06-24T02:57:42;10.63;;;9.40;;
29362;SDS011;16349;53.672;10.014;2023-06-24T03:00:42;11.47;;;9.33;;
29362;SDS011;16349;53.672;10.014;2023-06-24T03:03:09;11.17;;;8.70;;
29362;SDS011;16349;53.672;10.014;2023-06-24T03:05:43;10.80;;;9.50;;
29362;SDS011;16349;53.672;10.014;2023-06-24T03:08:14;11.53;;;9.50;;
29362;SDS011;16349;53.672;10.014;2023-06-24T03:10:42;11.57;;;9.20;;
29362;SDS011;16349;53.672;10.014;2023-06-24T03:13:17;11.37;;;9.20;;
29362;SDS011;16349;53.672;10.014;2023-06-24T03:15:49;10.10;;;9.00;;
29362;SDS011;16349;53.672;10.014;2023-06-24T03:18:16;10.70;;;9.33;;
29362;SDS011;16349;53.672;10.014;2023-06-24T03:20:46;11.03;;;8.83;;
29362;SDS011;16349;53.672;10.014;2023-06-24T03:23:16;10.20;;;9.10;;
29362;SDS011;16349;53.672;10.014;2023-06-24T03:25:43;9.97;;;8.97;;
29362;SDS011;16349;53.672;10.014;2023-06-24T03:28:10;10.13;;;9.20;;
29362;SDS011;16349;53.672;10.014;2023-06-24T03:30:45;11.23;;;9.33;;
29362;SDS011;16349;53.672;10.014;2023-06-24T03:33:16;10.73;;;9.63;;
29362;SDS011;16349;53.672;10.014;2023-06-24T03:35:44;12.53;;;9.50;;
29362;SDS011;16349;53.672;10.014;2023-06-24T03:38:14;10.23;;;9.20;;
29362;SDS011;16349;53.672;10.014;2023-06-24T03:40:41;12.43;;;9.17;;
29362;SDS011;16349;53.672;10.014;2023-06-24T03:43:09;11.67;;;9.50;;
29362;SDS011;16349;53.672;10.014;2023-06-24T03:45:35;9.47;;;8.50;;
29362;SDS011;16349;53.672;10.014;2023-06-24T03:48:04;13.30;;;9.37;;
29362;SDS011;16349;53.672;10.014;2023-06-24T03:50:32;10.43;;;9.37;;
29362;SDS011;16349;53.672;10.014;2023-06-24T03:52:58;12.40;;;9.00;;
29362;SDS011;16349;53.672;10.014;2023-06-24T03:55:27;10.83;;;9.03;;
29362;SDS011;16349;53.672;10.014;2023-06-24T03:57:53;10.57;;;9.17;;
29362;SDS011;16349;53.672;10.014;2023-06-24T04:00:20;10.80;;;9.40;;
29362;SDS011;16349;53.672;10.014;2023-06-24T04:02:48;11.30;;;8.63;;
29362;SDS011;16349;53.672;10.014;2023-06-24T04:05:16;11.10;;;9.70;;
29362;SDS011;16349;53.672;10.014;2023-06-24T04:07:43;11.47;;;8.83;;
29362;SDS011;16349;53.672;10.014;2023-06-24T04:10:12;10.90;;;9.67;;
29362;SDS011;16349;53.672;10.014;2023-06-24T04:12:39;12.47;;;9.33;;
29362;SDS011;16349;53.672;10.014;2023-06-24T04:15:07;14.30;;;9.47;;
29362;SDS011;16349;53.672;10.014;2023-06-24T04:17:34;9.80;;;8.67;;
29362;SDS011;16349;53.672;10.014;2023-06-24T04:20:01;11.70;;;9.27;;
29362;SDS011;16349;53.672;10.014;2023-06-24T04:22:35;13.60;;;9.53;;
29362;SDS011;16349;53.672;10.014;2023-06-24T04:25:03;11.80;;;9.53;;
29362;SDS011;16349;53.672;10.014;2023-06-24T04:27:31;9.83;;;8.83;;
29362;SDS011;16349;53.672;10.014;2023-06-24T04:29:58;13.43;;;9.70;;
29362;SDS011;16349;53.672;10.014;2023-06-24T04:32:25;12.83;;;9.53;;
29362;SDS011;16349;53.672;10.014;2023-06-24T04:34:52;10.53;;;8.60;;
29362;SDS011;16349;53.672;10.014;2023-06-24T04:37:19;12.20;;;9.47;;
29362;SDS011;16349;53.672;10.014;2023-06-24T04:39:48;11.43;;;9.00;;
29362;SDS011;16349;53.672;10.014;2023-06-24T04:42:16;11.53;;;9.67;;
29362;SDS011;16349;53.672;10.014;2023-06-24T04:44:42;12.73;;;8.83;;
29362;SDS011;16349;53.672;10.014;2023-06-24T04:47:09;12.00;;;7.47;;
29362;SDS011;16349;53.672;10.014;2023-06-24T04:49:38;8.80;;;7.90;;
29362;SDS011;16349;53.672;10.014;2023-06-24T04:52:06;8.83;;;7.90;;
29362;SDS011;16349;53.672;10.014;2023-06-24T04:54:33;8.73;;;7.83;;
29362;SDS011;16349;53.672;10.014;2023-06-24T04:57:01;8.13;;;7.30;;
29362;SDS011;16349;53.672;10.014;2023-06-24T04:59:28;8.57;;;7.67;;
29362;SDS011;16349;53.672;10.014;2023-06-24T05:01:55;8.40;;;7.60;;
29362;SDS011;16349;53.672;10.014;2023-06-24T05:04:22;9.03;;;6.77;;
29362;SDS011;16349;53.672;10.014;2023-06-24T05:06:48;11.20;;;7.10;;
29362;SDS011;16349;53.672;10.014;2023-06-24T05:09:15;9.00;;;7.10;;
29362;SDS011;16349;53.672;10.014;2023-06-24T05:11:42;9.40;;;6.83;;
29362;SDS011;16349;53.672;10.014;2023-06-24T05:14:10;9.00;;;7.07;;
29362;SDS011;16349;53.672;10.014;2023-06-24T05:16:37;8.90;;;6.27;;
29362;SDS011;16349;53.672;10.014;2023-06-24T05:19:04;8.17;;;6.40;;
29362;SDS011;16349;53.672;10.014;2023-06-24T05:21:31;8.40;;;6.47;;
29362;SDS011;16349;53.672;10.014;2023-06-24T05:23:57;10.93;;;6.10;;
29362;SDS011;16349;53.672;10.014;2023-06-24T05:26:24;8.37;;;6.10;;
29362;SDS011;16349;53.672;10.014;2023-06-24T05:28:51;7.30;;;6.60;;
29362;SDS011;16349;53.672;10.014;2023-06-24T05:31:19;6.63;;;6.03;;
29362;SDS011;16349;53.672;10.014;2023-06-24T05:33:46;7.97;;;5.93;;
29362;SDS011;16349;53.672;10.014;2023-06-24T05:36:13;8.70;;;5.53;;
29362;SDS011;16349;53.672;10.014;2023-06-24T05:38:40;7.77;;;5.97;;
29362;SDS011;16349;53.672;10.014;2023-06-24T05:41:07;8.67;;;5.73;;
29362;SDS011;16349;53.672;10.014;2023-06-24T05:43:34;6.67;;;4.90;;
29362;SDS011;16349;53.672;10.014;2023-06-24T05:46:00;6.20;;;5.60;;
29362;SDS011;16349;53.672;10.014;2023-06-24T05:48:28;6.40;;;5.57;;
29362;SDS011;16349;53.672;10.014;2023-06-24T05:50:55;5.90;;;5.27;;
29362;SDS011;16349;53.672;10.014;2023-06-24T05:53:22;5.67;;;5.07;;
29362;SDS011;16349;53.672;10.014;2023-06-24T05:55:49;7.10;;;5.00;;
29362;SDS011;16349;53.672;10.014;2023-06-24T05:58:16;5.10;;;4.70;;
29362;SDS011;16349;53.672;10.014;2023-06-24T06:00:43;5.63;;;4.60;;
29362;SDS011;16349;53.672;10.014;2023-06-24T06:03:10;8.73;;;5.03;;
29362;SDS011;16349;53.672;10.014;2023-06-24T06:05:38;7.50;;;5.00;;
29362;SDS011;16349;53.672;10.014;2023-06-24T06:08:05;7.60;;;6.17;;
29362;SDS011;16349;53.672;10.014;2023-06-24T06:10:31;6.27;;;5.73;;
29362;SDS011;16349;53.672;10.014;2023-06-24T06:12:58;9.03;;;5.37;;
29362;SDS011;16349;53.672;10.014;2023-06-24T06:15:25;5.50;;;4.40;;
29362;SDS011;16349;53.672;10.014;2023-06-24T06:17:52;5.83;;;4.83;;
29362;SDS011;16349;53.672;10.014;2023-06-24T06:20:19;8.07;;;5.33;;
29362;SDS011;16349;53.672;10.014;2023-06-24T06:22:47;5.57;;;3.77;;
29362;SDS011;16349;53.672;10.014;2023-06-24T06:25:16;5.17;;;3.87;;
29362;SDS011;16349;53.672;10.014;2023-06-24T06:27:43;5.97;;;4.43;;
29362;SDS011;16349;53.672;10.014;2023-06-24T06:30:10;6.37;;;4.60;;
29362;SDS011;16349;53.672;10.014;2023-06-24T06:32:38;5.40;;;4.63;;
29362;SDS011;16349;53.672;10.014;2023-06-24T06:35:05;7.87;;;4.77;;
29362;SDS011;16349;53.672;10.014;2023-06-24T06:37:33;7.97;;;6.03;;
29362;SDS011;16349;53.672;10.014;2023-06-24T06:40:01;6.53;;;4.57;;
29362;SDS011;16349;53.672;10.014;2023-06-24T06:42:28;5.67;;;5.07;;
29362;SDS011;16349;53.672;10.014;2023-06-24T06:44:55;8.87;;;6.07;;
29362;SDS011;16349;53.672;10.014;2023-06-24T06:47:22;7.97;;;5.13;;
29362;SDS011;16349;53.672;10.014;2023-06-24T06:49:49;7.80;;;5.20;;
29362;SDS011;16349;53.672;10.014;2023-06-24T06:52:16;6.30;;;4.73;;
29362;SDS011;16349;53.672;10.014;2023-06-24T06:54:43;8.53;;;4.53;;
29362;SDS011;16349;53.672;10.014;2023-06-24T06:57:11;4.50;;;4.10;;
29362;SDS011;16349;53.672;10.014;2023-06-24T06:59:38;5.67;;;4.53;;
29362;SDS011;16349;53.672;10.014;2023-06-24T07:02:05;6.80;;;4.40;;
29362;SDS011;16349;53.672;10.014;2023-06-24T07:04:32;5.60;;;3.80;;
29362;SDS011;16349;53.672;10.014;2023-06-24T07:06:59;4.63;;;3.97;;
29362;SDS011;16349;53.672;10.014;2023-06-24T07:09:26;5.67;;;3.90;;
29362;SDS011;16349;53.672;10.014;2023-06-24T07:11:52;4.67;;;4.27;;
29362;SDS011;16349;53.672;10.014;2023-06-24T07:14:20;5.53;;;4.33;;
29362;SDS011;16349;53.672;10.014;2023-06-24T07:16:47;4.00;;;3.70;;
29362;SDS011;16349;53.672;10.014;2023-06-24T07:19:14;6.87;;;4.30;;
29362;SDS011;16349;53.672;10.014;2023-06-24T07:21:41;4.07;;;3.77;;
29362;SDS011;16349;53.672;10.014;2023-06-24T07:24:08;5.60;;;4.80;;
29362;SDS011;16349;53.672;10.014;2023-06-24T07:26:35;7.17;;;3.83;;
29362;SDS011;16349;53.672;10.014;2023-06-24T07:29:06;5.63;;;4.27;;
29362;SDS011;16349;53.672;10.014;2023-06-24T07:31:34;6.27;;;4.37;;
29362;SDS011;16349;53.672;10.014;2023-06-24T07:34:01;4.80;;;4.10;;
29362;SDS011;16349;53.672;10.014;2023-06-24T07:36:28;4.30;;;3.90;;
29362;SDS011;16349;53.672;10.014;2023-06-24T07:38:55;5.60;;;4.13;;
29362;SDS011;16349;53.672;10.014;2023-06-24T07:41:22;4.50;;;3.67;;
29362;SDS011;16349;53.672;10.014;2023-06-24T07:43:49;4.07;;;3.70;;
29362;SDS011;16349;53.672;10.014;2023-06-24T07:46:16;4.37;;;3.63;;
29362;SDS011;16349;53.672;10.014;2023-06-24T07:48:44;6.37;;;3.90;;
29362;SDS011;16349;53.672;10.014;2023-06-24T07:51:11;4.50;;;4.10;;
29362;SDS011;16349;53.672;10.014;2023-06-24T07:53:38;4.80;;;3.70;;
29362;SDS011;16349;53.672;10.014;2023-06-24T07:56:05;3.80;;;3.50;;
29362;SDS011;16349;53.672;10.014;2023-06-24T07:58:31;4.53;;;3.93;;
29362;SDS011;16349;53.672;10.014;2023-06-24T08:01:00;4.50;;;4.10;;
29362;SDS011;16349;53.672;10.014;2023-06-24T08:03:26;4.97;;;4.10;;
29362;SDS011;16349;53.672;10.014;2023-06-24T08:05:55;5.53;;;3.43;;
29362;SDS011;16349;53.672;10.014;2023-06-24T08:08:22;6.37;;;4.00;;
29362;SDS011;16349;53.672;10.014;2023-06-24T08:10:49;4.03;;;3.43;;
29362;SDS011;16349;53.672;10.014;2023-06-24T08:13:15;6.10;;;3.80;;
29362;SDS011;16349;53.672;10.014;2023-06-24T08:15:42;4.03;;;3.40;;
29362;SDS011;16349;53.672;10.014;2023-06-24T08:18:09;5.60;;;3.30;;
29362;SDS011;16349;53.672;10.014;2023-06-24T08:20:36;3.37;;;3.07;;
29362;SDS011;16349;53.672;10.014;2023-06-24T08:23:04;5.33;;;3.90;;
29362;SDS011;16349;53.672;10.014;2023-06-24T08:25:31;4.23;;;3.40;;
29362;SDS011;16349;53.672;10.014;2023-06-24T08:28:53;3.73;;;3.43;;
29362;SDS011;16349;53.672;10.014;2023-06-24T08:31:39;5.27;;;3.13;;
29362;SDS011;16349;53.672;10.014;2023-06-24T08:34:06;4.07;;;3.03;;
29362;SDS011;16349;53.672;10.014;2023-06-24T08:36:32;3.77;;;3.47;;
29362;SDS011;16349;53.672;10.014;2023-06-24T08:39:01;3.20;;;2.93;;
29362;SDS011;16349;53.672;10.014;2023-06-24T08:41:27;7.80;;;6.30;;
29362;SDS011;16349;53.672;10.014;2023-06-24T08:43:54;3.37;;;3.17;;
29362;SDS011;16349;53.672;10.014;2023-06-24T08:46:21;5.77;;;3.50;;
29362;SDS011;16349;53.672;10.014;2023-06-24T08:48:52;3.67;;;3.37;;
29362;SDS011;16349;53.672;10.014;2023-06-24T08:51:26;4.10;;;3.60;;
29362;SDS011;16349;53.672;10.014;2023-06-24T08:53:55;5.70;;;2.73;;
29362;SDS011;16349;53.672;10.014;2023-06-24T08:56:25;3.67;;;3.20;;
29362;SDS011;16349;53.672;10.014;2023-06-24T08:58:53;3.43;;;3.10;;
29362;SDS011;16349;53.672;10.014;2023-06-24T09:01:20;5.07;;;2.83;;
29362;SDS011;16349;53.672;10.014;2023-06-24T09:03:47;3.90;;;3.47;;
29362;SDS011;16349;53.672;10.014;2023-06-24T09:06:14;7.37;;;3.50;;
29362;SDS011;16349;53.672;10.014;2023-06-24T09:08:40;3.50;;;3.23;;
29362;SDS011;16349;53.672;10.014;2023-06-24T09:11:21;4.00;;;3.33;;
29362;SDS011;16349;53.672;10.014;2023-06-24T09:13:55;4.20;;;3.57;;
29362;SDS011;16349;53.672;10.014;2023-06-24T09:16:22;4.43;;;3.20;;
29362;SDS011;16349;53.672;10.014;2023-06-24T09:18:50;5.10;;;3.10;;
29362;SDS011;16349;53.672;10.014;2023-06-24T09:21:21;2.97;;;2.77;;
29362;SDS011;16349;53.672;10.014;2023-06-24T09:23:50;3.17;;;2.88;;
29362;SDS011;16349;53.672;10.014;2023-06-24T09:26:22;3.67;;;3.38;;
29362;SDS011;16349;53.672;10.014;2023-06-24T09:28:49;3.65;;;3.35;;
29362;SDS011;16349;53.672;10.014;2023-06-24T09:31:17;4.18;;;3.75;;
29362;SDS011;16349;53.672;10.014;2023-06-24T09:33:45;7.13;;;3.60;;
29362;SDS011;16349;53.672;10.014;2023-06-24T09:36:12;4.35;;;3.25;;
29362;SDS011;16349;53.672;10.014;2023-06-24T09:38:41;4.20;;;3.88;;
29362;SDS011;16349;53.672;10.014;2023-06-24T09:41:09;3.47;;;3.10;;
29362;SDS011;16349;53.672;10.014;2023-06-24T09:43:36;4.10;;;3.55;;
29362;SDS011;16349;53.672;10.014;2023-06-24T09:46:05;4.40;;;3.30;;
29362;SDS011;16349;53.672;10.014;2023-06-24T09:48:34;5.32;;;3.67;;
29362;SDS011;16349;53.672;10.014;2023-06-24T09:51:02;4.13;;;3.72;;
29362;SDS011;16349;53.672;10.014;2023-06-24T09:53:30;6.25;;;3.70;;
29362;SDS011;16349;53.672;10.014;2023-06-24T09:55:58;4.22;;;3.78;;
29362;SDS011;16349;53.672;10.014;2023-06-24T09:58:26;4.47;;;4.07;;
29362;SDS011;16349;53.672;10.014;2023-06-24T10:00:57;4.93;;;3.60;;
29362;SDS011;16349;53.672;10.014;2023-06-24T10:03:27;4.82;;;3.88;;
29362;SDS011;16349;53.672;10.014;2023-06-24T10:05:56;6.15;;;3.97;;
29362;SDS011;16349;53.672;10.014;2023-06-24T10:08:24;4.00;;;3.58;;
29362;SDS011;16349;53.672;10.014;2023-06-24T10:10:52;4.20;;;3.40;;
29362;SDS011;16349;53.672;10.014;2023-06-24T10:13:19;3.92;;;3.47;;
29362;SDS011;16349;53.672;10.014;2023-06-24T10:15:45;4.13;;;3.83;;
29362;SDS011;16349;53.672;10.014;2023-06-24T10:18:31;3.45;;;3.15;;
29362;SDS011;16349;53.672;10.014;2023-06-24T10:21:00;3.78;;;3.47;;
29362;SDS011;16349;53.672;10.014;2023-06-24T10:23:31;4.05;;;3.65;;
29362;SDS011;16349;53.672;10.014;2023-06-24T10:26:00;3.78;;;3.47;;
29362;SDS011;16349;53.672;10.014;2023-06-24T10:28:26;3.90;;;3.10;;
29362;SDS011;16349;53.672;10.014;2023-06-24T10:31:16;4.10;;;3.78;;
29362;SDS011;16349;53.672;10.014;2023-06-24T10:33:44;4.00;;;3.40;;
29362;SDS011;16349;53.672;10.014;2023-06-24T10:36:32;5.03;;;3.67;;
29362;SDS011;16349;53.672;10.014;2023-06-24T10:38:59;5.32;;;3.40;;
29362;SDS011;16349;53.672;10.014;2023-06-24T10:41:26;3.50;;;3.20;;
29362;SDS011;16349;53.672;10.014;2023-06-24T10:43:52;3.80;;;3.38;;
29362;SDS011;16349;53.672;10.014;2023-06-24T10:46:22;3.88;;;3.58;;
29362;SDS011;16349;53.672;10.014;2023-06-24T10:48:53;121.97;;;19.73;;
29362;SDS011;16349;53.672;10.014;2023-06-24T10:51:19;4.65;;;4.13;;
29362;SDS011;16349;53.672;10.014;2023-06-24T10:53:48;6.10;;;4.30;;
29362;SDS011;16349;53.672;10.014;2023-06-24T10:56:14;4.35;;;3.97;;
29362;SDS011;16349;53.672;10.014;2023-06-24T10:58:54;3.38;;;3.17;;
29362;SDS011;16349;53.672;10.014;2023-06-24T11:01:21;5.20;;;4.05;;
29362;SDS011;16349;53.672;10.014;2023-06-24T11:03:48;4.07;;;3.70;;
29362;SDS011;16349;53.672;10.014;2023-06-24T11:06:15;4.03;;;3.72;;
29362;SDS011;16349;53.672;10.014;2023-06-24T11:08:45;4.32;;;3.90;;
29362;SDS011;16349;53.672;10.014;2023-06-24T11:11:19;4.38;;;4.00;;
29362;SDS011;16349;53.672;10.014;2023-06-24T11:13:47;4.00;;;3.45;;
29362;SDS011;16349;53.672;10.014;2023-06-24T11:16:14;3.50;;;3.20;;
29362;SDS011;16349;53.672;10.014;2023-06-24T11:18:46;4.82;;;3.85;;
29362;SDS011;16349;53.672;10.014;2023-06-24T11:21:14;5.30;;;3.92;;
29362;SDS011;16349;53.672;10.014;2023-06-24T11:23:41;4.10;;;3.75;;
29362;SDS011;16349;53.672;10.014;2023-06-24T11:26:08;4.55;;;3.70;;
29362;SDS011;16349;53.672;10.014;2023-06-24T11:28:37;4.43;;;3.83;;
29362;SDS011;16349;53.672;10.014;2023-06-24T11:31:06;3.97;;;3.65;;
29362;SDS011;16349;53.672;10.014;2023-06-24T11:33:33;4.47;;;4.18;;
29362;SDS011;16349;53.672;10.014;2023-06-24T11:36:00;3.80;;;3.50;;
29362;SDS011;16349;53.672;10.014;2023-06-24T11:38:27;4.35;;;3.92;;
29362;SDS011;16349;53.672;10.014;2023-06-24T11:40:57;5.93;;;4.78;;
29362;SDS011;16349;53.672;10.014;2023-06-24T11:43:25;4.60;;;4.15;;
29362;SDS011;16349;53.672;10.014;2023-06-24T11:45:54;6.03;;;4.22;;
29362;SDS011;16349;53.672;10.014;2023-06-24T11:48:20;4.75;;;4.25;;
29362;SDS011;16349;53.672;10.014;2023-06-24T11:50:52;4.20;;;3.80;;
29362;SDS011;16349;53.672;10.014;2023-06-24T11:53:22;6.57;;;4.50;;
29362;SDS011;16349;53.672;10.014;2023-06-24T11:55:55;18.15;;;4.68;;
29362;SDS011;16349;53.672;10.014;2023-06-24T11:58:22;4.07;;;3.75;;
29362;SDS011;16349;53.672;10.014;2023-06-24T12:00:49;5.30;;;4.18;;
29362;SDS011;16349;53.672;10.014;2023-06-24T12:03:22;3.95;;;3.55;;
29362;SDS011;16349;53.672;10.014;2023-06-24T12:05:50;5.55;;;4.35;;
29362;SDS011;16349;53.672;10.014;2023-06-24T12:08:17;11.02;;;4.90;;
29362;SDS011;16349;53.672;10.014;2023-06-24T12:10:44;7.55;;;4.15;;
29362;SDS011;16349;53.672;10.014;2023-06-24T12:13:11;6.20;;;4.72;;
29362;SDS011;16349;53.672;10.014;2023-06-24T12:15:38;5.68;;;4.50;;
29362;SDS011;16349;53.672;10.014;2023-06-24T12:18:07;6.30;;;4.28;;
29362;SDS011;16349;53.672;10.014;2023-06-24T12:20:35;4.45;;;4.05;;
29362;SDS011;16349;53.672;10.014;2023-06-24T12:23:02;7.57;;;4.22;;
29362;SDS011;16349;53.672;10.014;2023-06-24T12:25:29;5.25;;;4.18;;
29362;SDS011;16349;53.672;10.014;2023-06-24T12:27:56;4.30;;;4.00;;
29362;SDS011;16349;53.672;10.014;2023-06-24T12:30:24;6.85;;;4.32;;
29362;SDS011;16349;53.672;10.014;2023-06-24T12:32:51;4.10;;;3.80;;
29362;SDS011;16349;53.672;10.014;2023-06-24T12:35:18;4.90;;;4.40;;
29362;SDS011;16349;53.672;10.014;2023-06-24T12:37:47;5.35;;;4.85;;
29362;SDS011;16349;53.672;10.014;2023-06-24T12:40:14;4.55;;;4.10;;
29362;SDS011;16349;53.672;10.014;2023-06-24T12:42:40;4.68;;;4.25;;
29362;SDS011;16349;53.672;10.014;2023-06-24T12:45:07;6.60;;;3.90;;
29362;SDS011;16349;53.672;10.014;2023-06-24T12:47:36;4.30;;;3.90;;
29362;SDS011;16349;53.672;10.014;2023-06-24T12:50:03;6.00;;;3.80;;
29362;SDS011;16349;53.672;10.014;2023-06-24T12:52:31;5.47;;;4.22;;
29362;SDS011;16349;53.672;10.014;2023-06-24T12:55:00;5.50;;;3.78;;
29362;SDS011;16349;53.672;10.014;2023-06-24T12:57:28;4.60;;;4.20;;
29362;SDS011;16349;53.672;10.014;2023-06-24T12:59:55;3.60;;;3.38;;
29362;SDS011;16349;53.672;10.014;2023-06-24T13:02:22;4.35;;;4.05;;
29362;SDS011;16349;53.672;10.014;2023-06-24T13:04:49;5.03;;;4.45;;
29362;SDS011;16349;53.672;10.014;2023-06-24T13:07:16;4.43;;;3.97;;
29362;SDS011;16349;53.672;10.014;2023-06-24T13:09:43;4.55;;;4.15;;
29362;SDS011;16349;53.672;10.014;2023-06-24T13:12:11;4.35;;;2.95;;
29362;SDS011;16349;53.672;10.014;2023-06-24T13:14:38;5.85;;;4.05;;
29362;SDS011;16349;53.672;10.014;2023-06-24T13:17:05;6.15;;;3.75;;
29362;SDS011;16349;53.672;10.014;2023-06-24T13:19:32;4.07;;;3.78;;
29362;SDS011;16349;53.672;10.014;2023-06-24T13:21:59;3.75;;;3.50;;
29362;SDS011;16349;53.672;10.014;2023-06-24T13:24:25;3.88;;;3.58;;
29362;SDS011;16349;53.672;10.014;2023-06-24T13:26:52;3.90;;;3.38;;
29362;SDS011;16349;53.672;10.014;2023-06-24T13:29:21;3.90;;;3.53;;
29362;SDS011;16349;53.672;10.014;2023-06-24T13:31:47;3.50;;;3.28;;
29362;SDS011;16349;53.672;10.014;2023-06-24T13:34:14;5.43;;;3.50;;
29362;SDS011;16349;53.672;10.014;2023-06-24T13:36:41;4.50;;;3.28;;
29362;SDS011;16349;53.672;10.014;2023-06-24T13:39:08;3.42;;;3.13;;
29362;SDS011;16349;53.672;10.014;2023-06-24T13:41:37;4.43;;;3.42;;
29362;SDS011;16349;53.672;10.014;2023-06-24T13:44:04;3.42;;;3.13;;
29362;SDS011;16349;53.672;10.014;2023-06-24T13:46:33;3.58;;;3.28;;
29362;SDS011;16349;53.672;10.014;2023-06-24T13:49:00;3.65;;;3.05;;
29362;SDS011;16349;53.672;10.014;2023-06-24T13:51:27;3.60;;;3.30;;
29362;SDS011;16349;53.672;10.014;2023-06-24T13:53:54;3.92;;;3.63;;
29362;SDS011;16349;53.672;10.014;2023-06-24T13:56:22;3.75;;;3.13;;
29362;SDS011;16349;53.672;10.014;2023-06-24T13:58:50;3.30;;;3.10;;
29362;SDS011;16349;53.672;10.014;2023-06-24T14:01:18;3.88;;;3.58;;
29362;SDS011;16349;53.672;10.014;2023-06-24T14:03:47;3.35;;;3.05;;
29362;SDS011;16349;53.672;10.014;2023-06-24T14:06:15;3.10;;;2.90;;
29362;SDS011;16349;53.672;10.014;2023-06-24T14:08:44;4.10;;;3.17;;
29362;SDS011;16349;53.672;10.014;2023-06-24T14:11:11;3.33;;;3.08;;
29362;SDS011;16349;53.672;10.014;2023-06-24T14:13:39;3.30;;;3.00;;
29362;SDS011;16349;53.672;10.014;2023-06-24T14:16:06;3.25;;;2.95;;
29362;SDS011;16349;53.672;10.014;2023-06-24T14:18:33;4.40;;;2.92;;
29362;SDS011;16349;53.672;10.014;2023-06-24T14:21:02;3.33;;;2.83;;
29362;SDS011;16349;53.672;10.014;2023-06-24T14:23:30;3.55;;;3.13;;
29362;SDS011;16349;53.672;10.014;2023-06-24T14:25:58;3.90;;;3.50;;
29362;SDS011;16349;53.672;10.014;2023-06-24T14:28:25;54.20;;;5.85;;
29362;SDS011;16349;53.672;10.014;2023-06-24T14:30:52;4.05;;;3.65;;
29362;SDS011;16349;53.672;10.014;2023-06-24T14:33:19;4.22;;;3.60;;
29362;SDS011;16349;53.672;10.014;2023-06-24T14:35:46;3.83;;;3.50;;
29362;SDS011;16349;53.672;10.014;2023-06-24T14:38:14;3.00;;;2.50;;